x

Buoy I01 - Eastern Maine Shelf (44034) Wave Buoy

3:04pm - Thu 23rd Nov 2017 All times are EST. -5 hours from GMT.

  • Sig Wave height 6.2ft
  • Peak Period 11s
  • Wind
    13mph, 18mph gusts
  • Sea Temp 51°f
  • Air Temp 38°f
  • Sea Pressure 1012.7mb
  • Buoy I01 - Eastern Maine Shelf
  • Buoy I01 - Eastern Maine Shelf

More Historic Weather Station data

Upgrade to MSW Pro to gain access to the past 30 days of data for over 8000 Wavebouys and Weather Stations around the globe.

Join

Comparision Forecast

View Surf forecast
   
Thu 11/23 3:04pm 6ft 11s 13 18 mph 1012.7mb 51f 38f
2:04pm 6ft 11s 16 20 mph 1012.1mb 51f 37f
1:04pm 5ft 11s 18 22 mph 1011.3mb 51f 36f
12:04pm 6ft 11s 16 18 mph 1012.2mb 51f 35f
10:04am  -   -  20 25 mph 1013.2mb 51f 35f
9:04am 6ft 11s 27 34 mph 1012.9mb 51f 34f
8:04am 4ft 4s 25 31 mph 1013.4mb 51f 35f
7:04am 4ft 4s 25 29 mph 1011.8mb 51f 36f
6:04am 4ft 5s 31 36 mph 1009.9mb 51f 36f
5:04am 4.5ft 5s 27 31 mph 1009.7mb 51f 38f
4:04am 4.5ft 5s 29 36 mph 1008.6mb 51f 39f
3:04am 4.5ft 4s 27 31 mph 1008.1mb 51f 40f
2:04am 5ft 5s 31 38 mph 1007mb 51f 41f
1:04am 5ft 5s 29 36 mph 1005.9mb 51f 42f
12:04am 4.5ft 5s 27 34 mph 1004.7mb 51f 42f
Wed 11/22 11:04pm 5.5ft 5s 27 34 mph 1003.7mb 51f 42f
10:04pm 6ft 5s 31 38 mph 1003.6mb 51f 43f
9:04pm 5ft 5s 29 36 mph 1003.4mb 51f 44f
8:04pm 4ft 4s 31 40 mph 1003.1mb 51f 46f
7:04pm 3ft 6s 13 16 mph 1004.1mb 51f 50f
6:04pm 3.5ft 8s 7 9 mph 1005.7mb 51f 50f
5:04pm 3.5ft 6s 4 7 mph 1006.4mb 51f 50f
4:04pm 4ft 8s 2 2 mph 1007.6mb 51f 50f
3:04pm 4ft 6s 4 4 mph 1008.7mb 51f 50f
2:04pm 4.5ft 6s 4 7 mph 1008.9mb 51f 51f
1:04pm 4.5ft 8s 9 11 mph 1010.6mb 51f 52f
12:04pm 4.5ft 6s 7 7 mph 1011.9mb 51f 52f
11:04am 5ft 8s 11 13 mph 1013.3mb 51f 52f
10:04am 5ft 6s 9 11 mph 1014.2mb 51f 52f
9:04am 5ft 8s 9 11 mph 1014.6mb 51f 52f
8:04am 6ft 8s 9 11 mph 1015.4mb 51f 52f
7:04am 6.5ft 8s 9 11 mph 1015.7mb 51f 52f
6:04am 6.5ft 8s 13 16 mph 1015.8mb 51f 52f
5:04am 7ft 8s 16 20 mph 1015.5mb 51f 52f
4:04am 7.5ft 8s 18 22 mph 1015mb 51f 52f
3:04am 8ft 8s 22 25 mph 1014.9mb 51f 53f
Tue 11/21 11:04pm 9ft 8s 22 29 mph 1015.1mb 51f 53f
10:04pm 10ft 8s 25 29 mph 1015.2mb 51f 53f
9:04pm 10.5ft 8s 27 31 mph 1015.4mb 51f 53f
8:04pm 9.5ft 8s 25 31 mph 1015.2mb 51f 53f
7:04pm 9ft 8s 27 34 mph 1015.1mb 51f 53f
6:04pm 8ft 8s 27 34 mph 1014.6mb 51f 53f
4:04pm 9ft 8s 27 31 mph 1014.9mb 51f 53f
3:04pm 8ft 8s 25 29 mph 1015.1mb 51f 52f
2:04pm 7ft 6s 25 31 mph 1015.3mb 51f 51f
1:04pm 5.5ft 5s 22 27 mph 1015.3mb 51f 50f
12:04pm 4.5ft 6s 25 31 mph 1015.9mb 51f 49f
11:04am 3.5ft 8s 22 27 mph 1016.8mb 51f 49f
10:04am 4ft 8s 13 16 mph 1018.3mb 51f 44f
9:04am 3.5ft 11s 9 11 mph 1019.2mb 51f 40f
8:04am 3.5ft 11s 7 11 mph 1019.7mb 51f 36f
7:04am 3.5ft 11s 4 7 mph 1019.5mb 51f 32f
6:04am 4ft 8s 2 4 mph 1019.4mb 51f 29f
5:04am 4ft 11s 7 11 mph 1018.6mb 51f 28f
4:04am 4ft 8s 9 11 mph 1019.1mb 51f 27f
3:04am 5ft 11s 11 16 mph 1018.4mb 51f 26f
2:04am 5ft 8s 13 18 mph 1018.1mb 50f 26f
1:04am 5.5ft 8s 18 20 mph 1017.1mb 50f 27f
12:04am 6ft 8s 18 25 mph 1016.6mb 50f 27f
Mon 11/20 11:04pm 6.5ft 11s 20 25 mph 1015.4mb 51f 28f
10:04pm 5.5ft 6s 20 27 mph 1014.1mb 51f 30f
9:04pm 7ft 8s 27 34 mph 1013mb 51f 32f
8:04pm  -   -  22 29 mph 1012.3mb 51f 32f
7:04pm 7ft 11s 34 40 mph 1011mb 51f 35f
6:04pm 5ft 6s 25 31 mph 1010.1mb 51f 36f
5:04pm 8ft 6s 27 31 mph 1009.2mb 51f 36f
4:04pm 6ft 5s 27 36 mph 1008.5mb 51f 36f
3:04pm 9ft 11s 29 36 mph 1007.3mb 51f 36f
2:04pm 6ft 6s 29 36 mph 1005.9mb 51f 37f
1:04pm 7.5ft 11s 29 36 mph 1005.3mb 51f 38f
12:04pm  -   -  25 31 mph 1005.2mb 51f 37f
11:04am 6ft 6s 27 34 mph 1005.4mb 51f 37f
10:04am 9ft 11s 29 38 mph 1005.6mb 51f 36f
9:04am 9ft 11s 25 29 mph 1005.2mb 51f 36f
8:04am 9ft 11s 25 34 mph 1004.7mb 51f 37f
7:04am 8ft 11s 27 34 mph 1003.4mb 51f 37f
6:04am 8ft 11s 27 31 mph 1002.7mb 51f 37f
5:04am 8ft 11s 20 27 mph 1001.8mb 51f 37f
4:04am 8.5ft 11s 25 29 mph 1000.9mb 51f 37f
3:04am 9ft 11s 25 29 mph 999.8mb 51f 37f
2:04am 8ft 11s 22 29 mph 999.6mb 51f 38f
1:04am 9ft 11s 27 31 mph 998.4mb 51f 38f
12:04am 10ft 8s 25 31 mph 998.2mb 51f 38f
Sun 11/19 11:04pm 7.5ft 8s 27 34 mph 997.2mb 51f 39f